sensor_id;sensor_type;location;lat;lon;timestamp;temperature;humidity
75621;DHT22;64574;48.506;-2.750;2022-11-18T00:01:19;9.00;78.00
75621;DHT22;64574;48.506;-2.750;2022-11-18T00:03:46;9.10;77.80
75621;DHT22;64574;48.506;-2.750;2022-11-18T00:06:14;9.00;77.90
75621;DHT22;64574;48.506;-2.750;2022-11-18T00:08:40;9.00;78.10
75621;DHT22;64574;48.506;-2.750;2022-11-18T00:11:14;9.20;77.60
75621;DHT22;64574;48.506;-2.750;2022-11-18T00:13:59;9.00;77.50
75621;DHT22;64574;48.506;-2.750;2022-11-18T00:16:43;9.00;77.50
75621;DHT22;64574;48.506;-2.750;2022-11-18T00:19:08;9.00;77.70
75621;DHT22;64574;48.506;-2.750;2022-11-18T00:21:34;9.00;77.70
75621;DHT22;64574;48.506;-2.750;2022-11-18T00:24:00;9.00;77.60
75621;DHT22;64574;48.506;-2.750;2022-11-18T00:26:25;9.00;77.90
75621;DHT22;64574;48.506;-2.750;2022-11-18T00:28:51;9.00;77.80
75621;DHT22;64574;48.506;-2.750;2022-11-18T00:31:16;9.00;78.40
75621;DHT22;64574;48.506;-2.750;2022-11-18T00:33:42;9.20;77.80
75621;DHT22;64574;48.506;-2.750;2022-11-18T00:36:10;9.20;77.70
75621;DHT22;64574;48.506;-2.750;2022-11-18T00:38:36;9.20;77.80
75621;DHT22;64574;48.506;-2.750;2022-11-18T00:43:29;9.10;78.00
75621;DHT22;64574;48.506;-2.750;2022-11-18T00:45:55;9.00;78.30
75621;DHT22;64574;48.506;-2.750;2022-11-18T00:48:21;9.00;78.40
75621;DHT22;64574;48.506;-2.750;2022-11-18T00:50:51;9.00;78.90
75621;DHT22;64574;48.506;-2.750;2022-11-18T00:53:18;9.00;78.80
75621;DHT22;64574;48.506;-2.750;2022-11-18T00:55:44;9.10;78.60
75621;DHT22;64574;48.506;-2.750;2022-11-18T00:58:10;9.00;78.90
75621;DHT22;64574;48.506;-2.750;2022-11-18T01:00:43;9.00;79.00
75621;DHT22;64574;48.506;-2.750;2022-11-18T01:03:10;9.00;79.10
75621;DHT22;64574;48.506;-2.750;2022-11-18T01:05:38;9.00;79.10
75621;DHT22;64574;48.506;-2.750;2022-11-18T01:08:05;9.00;79.10
75621;DHT22;64574;48.506;-2.750;2022-11-18T01:10:31;9.20;78.90
75621;DHT22;64574;48.506;-2.750;2022-11-18T01:12:57;9.20;78.60
75621;DHT22;64574;48.506;-2.750;2022-11-18T01:15:43;9.00;79.10
75621;DHT22;64574;48.506;-2.750;2022-11-18T01:18:09;9.00;79.20
75621;DHT22;64574;48.506;-2.750;2022-11-18T01:20:35;9.00;79.30
75621;DHT22;64574;48.506;-2.750;2022-11-18T01:23:01;9.00;79.20
75621;DHT22;64574;48.506;-2.750;2022-11-18T01:25:28;9.10;79.00
75621;DHT22;64574;48.506;-2.750;2022-11-18T01:27:54;9.10;79.00
75621;DHT22;64574;48.506;-2.750;2022-11-18T01:30:20;9.00;79.10
75621;DHT22;64574;48.506;-2.750;2022-11-18T01:32:45;9.00;79.00
75621;DHT22;64574;48.506;-2.750;2022-11-18T01:35:11;9.00;79.30
75621;DHT22;64574;48.506;-2.750;2022-11-18T01:37:37;9.00;79.10
75621;DHT22;64574;48.506;-2.750;2022-11-18T01:40:07;9.00;78.90
75621;DHT22;64574;48.506;-2.750;2022-11-18T01:42:34;9.10;79.10
75621;DHT22;64574;48.506;-2.750;2022-11-18T01:50:27;9.00;79.40
75621;DHT22;64574;48.506;-2.750;2022-11-18T01:52:56;9.00;79.50
75621;DHT22;64574;48.506;-2.750;2022-11-18T01:55:26;9.00;79.10
75621;DHT22;64574;48.506;-2.750;2022-11-18T01:58:00;9.00;79.20
75621;DHT22;64574;48.506;-2.750;2022-11-18T02:00:28;9.00;79.30
75621;DHT22;64574;48.506;-2.750;2022-11-18T02:02:54;9.00;79.10
75621;DHT22;64574;48.506;-2.750;2022-11-18T02:05:21;9.00;79.20
75621;DHT22;64574;48.506;-2.750;2022-11-18T02:07:48;9.10;78.90
75621;DHT22;64574;48.506;-2.750;2022-11-18T02:10:20;9.10;78.80
75621;DHT22;64574;48.506;-2.750;2022-11-18T02:12:48;9.00;79.50
75621;DHT22;64574;48.506;-2.750;2022-11-18T02:15:14;9.00;79.80
75621;DHT22;64574;48.506;-2.750;2022-11-18T02:18:08;9.00;80.10
75621;DHT22;64574;48.506;-2.750;2022-11-18T02:20:41;9.00;80.20
75621;DHT22;64574;48.506;-2.750;2022-11-18T02:26:09;9.00;80.00
75621;DHT22;64574;48.506;-2.750;2022-11-18T02:28:59;9.00;80.20
75621;DHT22;64574;48.506;-2.750;2022-11-18T02:31:34;9.00;80.00
75621;DHT22;64574;48.506;-2.750;2022-11-18T02:37:21;9.00;80.00
75621;DHT22;64574;48.506;-2.750;2022-11-18T02:39:56;9.00;80.00
75621;DHT22;64574;48.506;-2.750;2022-11-18T02:42:25;9.10;80.00
75621;DHT22;64574;48.506;-2.750;2022-11-18T02:44:56;9.00;80.30
75621;DHT22;64574;48.506;-2.750;2022-11-18T02:47:23;9.00;80.40
75621;DHT22;64574;48.506;-2.750;2022-11-18T02:50:01;9.00;80.50
75621;DHT22;64574;48.506;-2.750;2022-11-18T02:52:28;9.20;80.00
75621;DHT22;64574;48.506;-2.750;2022-11-18T02:54:56;9.10;80.10
75621;DHT22;64574;48.506;-2.750;2022-11-18T02:57:22;9.20;84.20
75621;DHT22;64574;48.506;-2.750;2022-11-18T02:59:49;9.20;84.10
75621;DHT22;64574;48.506;-2.750;2022-11-18T03:02:17;9.10;83.30
75621;DHT22;64574;48.506;-2.750;2022-11-18T03:04:45;9.10;82.30
75621;DHT22;64574;48.506;-2.750;2022-11-18T03:07:19;9.10;79.80
75621;DHT22;64574;48.506;-2.750;2022-11-18T03:09:50;9.00;80.00
75621;DHT22;64574;48.506;-2.750;2022-11-18T03:12:35;9.00;79.80
75621;DHT22;64574;48.506;-2.750;2022-11-18T03:15:32;9.10;80.10
75621;DHT22;64574;48.506;-2.750;2022-11-18T03:18:09;9.00;80.00
75621;DHT22;64574;48.506;-2.750;2022-11-18T03:20:54;9.10;79.90
75621;DHT22;64574;48.506;-2.750;2022-11-18T03:23:42;9.00;79.40
75621;DHT22;64574;48.506;-2.750;2022-11-18T03:26:15;9.00;79.20
75621;DHT22;64574;48.506;-2.750;2022-11-18T03:28:49;9.00;79.60
75621;DHT22;64574;48.506;-2.750;2022-11-18T03:34:00;9.00;79.70
75621;DHT22;64574;48.506;-2.750;2022-11-18T03:36:32;9.00;80.10
75621;DHT22;64574;48.506;-2.750;2022-11-18T03:39:02;9.00;80.20
75621;DHT22;64574;48.506;-2.750;2022-11-18T03:41:33;9.00;80.10
75621;DHT22;64574;48.506;-2.750;2022-11-18T03:44:06;8.90;80.30
75621;DHT22;64574;48.506;-2.750;2022-11-18T03:46:45;8.90;80.30
75621;DHT22;64574;48.506;-2.750;2022-11-18T03:49:16;8.90;80.50
75621;DHT22;64574;48.506;-2.750;2022-11-18T03:51:53;8.90;79.90
75621;DHT22;64574;48.506;-2.750;2022-11-18T03:54:26;8.80;80.50
75621;DHT22;64574;48.506;-2.750;2022-11-18T03:56:57;8.90;80.40
75621;DHT22;64574;48.506;-2.750;2022-11-18T03:59:32;8.90;80.10
75621;DHT22;64574;48.506;-2.750;2022-11-18T04:04:36;8.90;79.70
75621;DHT22;64574;48.506;-2.750;2022-11-18T04:07:10;9.00;79.40
75621;DHT22;64574;48.506;-2.750;2022-11-18T04:09:44;8.90;79.00
75621;DHT22;64574;48.506;-2.750;2022-11-18T04:12:15;8.90;79.10
75621;DHT22;64574;48.506;-2.750;2022-11-18T04:14:43;8.90;78.70
75621;DHT22;64574;48.506;-2.750;2022-11-18T04:17:15;8.90;78.70
75621;DHT22;64574;48.506;-2.750;2022-11-18T04:19:41;8.90;78.80
75621;DHT22;64574;48.506;-2.750;2022-11-18T04:22:09;8.90;79.20
75621;DHT22;64574;48.506;-2.750;2022-11-18T04:24:35;8.90;79.00
75621;DHT22;64574;48.506;-2.750;2022-11-18T04:27:02;8.90;79.20
75621;DHT22;64574;48.506;-2.750;2022-11-18T04:29:29;8.90;79.20
75621;DHT22;64574;48.506;-2.750;2022-11-18T04:31:54;8.90;79.20
75621;DHT22;64574;48.506;-2.750;2022-11-18T04:34:20;8.90;79.00
75621;DHT22;64574;48.506;-2.750;2022-11-18T04:36:45;8.90;78.70
75621;DHT22;64574;48.506;-2.750;2022-11-18T04:39:11;8.90;78.70
75621;DHT22;64574;48.506;-2.750;2022-11-18T04:41:37;9.00;78.40
75621;DHT22;64574;48.506;-2.750;2022-11-18T04:46:51;8.90;78.50
75621;DHT22;64574;48.506;-2.750;2022-11-18T04:49:17;8.90;78.60
75621;DHT22;64574;48.506;-2.750;2022-11-18T04:51:44;8.90;78.60
75621;DHT22;64574;48.506;-2.750;2022-11-18T04:54:11;8.90;78.70
75621;DHT22;64574;48.506;-2.750;2022-11-18T04:56:38;8.90;78.80
75621;DHT22;64574;48.506;-2.750;2022-11-18T04:59:04;8.80;79.00
75621;DHT22;64574;48.506;-2.750;2022-11-18T05:01:31;8.80;79.20
75621;DHT22;64574;48.506;-2.750;2022-11-18T05:03:58;8.80;78.90
75621;DHT22;64574;48.506;-2.750;2022-11-18T05:06:24;8.80;78.40
75621;DHT22;64574;48.506;-2.750;2022-11-18T05:08:49;8.80;78.30
75621;DHT22;64574;48.506;-2.750;2022-11-18T05:11:15;8.70;78.20
75621;DHT22;64574;48.506;-2.750;2022-11-18T05:13:59;8.60;78.70
75621;DHT22;64574;48.506;-2.750;2022-11-18T05:16:25;8.70;78.30
75621;DHT22;64574;48.506;-2.750;2022-11-18T05:18:51;8.80;78.10
75621;DHT22;64574;48.506;-2.750;2022-11-18T05:21:16;8.70;78.00
75621;DHT22;64574;48.506;-2.750;2022-11-18T05:23:42;8.70;78.00
75621;DHT22;64574;48.506;-2.750;2022-11-18T05:26:09;8.60;77.80
75621;DHT22;64574;48.506;-2.750;2022-11-18T05:28:36;8.60;78.30
75621;DHT22;64574;48.506;-2.750;2022-11-18T05:31:08;8.60;78.20
75621;DHT22;64574;48.506;-2.750;2022-11-18T05:33:34;8.60;78.30
75621;DHT22;64574;48.506;-2.750;2022-11-18T05:36:08;8.50;78.30
75621;DHT22;64574;48.506;-2.750;2022-11-18T05:38:35;8.50;78.30
75621;DHT22;64574;48.506;-2.750;2022-11-18T05:41:01;8.50;78.40
75621;DHT22;64574;48.506;-2.750;2022-11-18T05:43:28;8.50;78.50
75621;DHT22;64574;48.506;-2.750;2022-11-18T05:45:54;8.60;78.40
75621;DHT22;64574;48.506;-2.750;2022-11-18T05:48:20;8.60;77.70
75621;DHT22;64574;48.506;-2.750;2022-11-18T05:50:48;8.60;77.60
75621;DHT22;64574;48.506;-2.750;2022-11-18T05:53:15;8.60;77.50
75621;DHT22;64574;48.506;-2.750;2022-11-18T05:55:56;8.60;77.90
75621;DHT22;64574;48.506;-2.750;2022-11-18T05:58:22;8.60;77.80
75621;DHT22;64574;48.506;-2.750;2022-11-18T06:00:51;8.60;77.70
75621;DHT22;64574;48.506;-2.750;2022-11-18T06:03:27;8.60;77.60
75621;DHT22;64574;48.506;-2.750;2022-11-18T06:05:54;8.60;77.20
75621;DHT22;64574;48.506;-2.750;2022-11-18T06:08:22;8.60;77.10
75621;DHT22;64574;48.506;-2.750;2022-11-18T06:10:50;8.70;76.90
75621;DHT22;64574;48.506;-2.750;2022-11-18T06:13:23;8.80;76.20
75621;DHT22;64574;48.506;-2.750;2022-11-18T06:15:52;8.70;76.40
75621;DHT22;64574;48.506;-2.750;2022-11-18T06:18:24;8.70;76.40
75621;DHT22;64574;48.506;-2.750;2022-11-18T06:20:52;8.80;76.30
75621;DHT22;64574;48.506;-2.750;2022-11-18T06:23:19;8.70;76.40
75621;DHT22;64574;48.506;-2.750;2022-11-18T06:25:45;8.60;76.50
75621;DHT22;64574;48.506;-2.750;2022-11-18T06:28:13;8.60;76.80
75621;DHT22;64574;48.506;-2.750;2022-11-18T06:30:39;8.60;77.00
75621;DHT22;64574;48.506;-2.750;2022-11-18T06:33:05;8.60;76.90
75621;DHT22;64574;48.506;-2.750;2022-11-18T06:35:31;8.60;77.00
75621;DHT22;64574;48.506;-2.750;2022-11-18T06:37:57;8.60;76.80
75621;DHT22;64574;48.506;-2.750;2022-11-18T06:40:22;8.40;77.00
75621;DHT22;64574;48.506;-2.750;2022-11-18T06:42:48;8.50;76.70
75621;DHT22;64574;48.506;-2.750;2022-11-18T06:45:32;8.50;76.60
75621;DHT22;64574;48.506;-2.750;2022-11-18T06:47:58;8.40;76.50
75621;DHT22;64574;48.506;-2.750;2022-11-18T06:50:28;8.30;76.50
75621;DHT22;64574;48.506;-2.750;2022-11-18T06:52:53;8.40;76.60
75621;DHT22;64574;48.506;-2.750;2022-11-18T06:55:19;8.40;76.10
75621;DHT22;64574;48.506;-2.750;2022-11-18T06:57:45;8.40;76.10
75621;DHT22;64574;48.506;-2.750;2022-11-18T07:00:11;8.30;76.50
75621;DHT22;64574;48.506;-2.750;2022-11-18T07:02:37;8.30;76.70
75621;DHT22;64574;48.506;-2.750;2022-11-18T07:05:04;8.30;76.70
75621;DHT22;64574;48.506;-2.750;2022-11-18T07:07:30;8.30;76.50
75621;DHT22;64574;48.506;-2.750;2022-11-18T07:09:56;8.30;76.60
75621;DHT22;64574;48.506;-2.750;2022-11-18T07:12:21;8.30;76.40
75621;DHT22;64574;48.506;-2.750;2022-11-18T07:14:47;8.30;76.60
75621;DHT22;64574;48.506;-2.750;2022-11-18T07:17:13;8.20;76.70
75621;DHT22;64574;48.506;-2.750;2022-11-18T07:19:39;8.30;76.50
75621;DHT22;64574;48.506;-2.750;2022-11-18T07:22:05;8.30;76.20
75621;DHT22;64574;48.506;-2.750;2022-11-18T07:24:32;8.30;75.90
75621;DHT22;64574;48.506;-2.750;2022-11-18T07:26:58;8.20;76.00
75621;DHT22;64574;48.506;-2.750;2022-11-18T07:29:24;8.20;76.30
75621;DHT22;64574;48.506;-2.750;2022-11-18T07:31:49;8.20;75.70
75621;DHT22;64574;48.506;-2.750;2022-11-18T07:34:15;8.20;75.80
75621;DHT22;64574;48.506;-2.750;2022-11-18T07:36:41;8.30;75.40
75621;DHT22;64574;48.506;-2.750;2022-11-18T07:39:07;8.30;75.50
75621;DHT22;64574;48.506;-2.750;2022-11-18T07:41:33;8.30;75.20
75621;DHT22;64574;48.506;-2.750;2022-11-18T07:44:01;8.30;74.90
75621;DHT22;64574;48.506;-2.750;2022-11-18T07:46:36;8.30;74.90
75621;DHT22;64574;48.506;-2.750;2022-11-18T07:49:04;8.30;74.80
75621;DHT22;64574;48.506;-2.750;2022-11-18T07:51:33;8.30;74.70
75621;DHT22;64574;48.506;-2.750;2022-11-18T07:53:59;8.40;74.40
75621;DHT22;64574;48.506;-2.750;2022-11-18T07:56:26;8.50;73.70
75621;DHT22;64574;48.506;-2.750;2022-11-18T07:59:00;8.50;74.00
75621;DHT22;64574;48.506;-2.750;2022-11-18T08:01:26;8.50;74.00
75621;DHT22;64574;48.506;-2.750;2022-11-18T08:03:56;8.40;73.90
75621;DHT22;64574;48.506;-2.750;2022-11-18T08:06:21;8.30;74.10
75621;DHT22;64574;48.506;-2.750;2022-11-18T08:08:48;8.40;74.40
75621;DHT22;64574;48.506;-2.750;2022-11-18T08:11:17;8.50;74.10
75621;DHT22;64574;48.506;-2.750;2022-11-18T08:13:43;8.60;73.90
75621;DHT22;64574;48.506;-2.750;2022-11-18T08:16:17;8.60;73.40
75621;DHT22;64574;48.506;-2.750;2022-11-18T08:18:43;8.50;74.00
75621;DHT22;64574;48.506;-2.750;2022-11-18T08:21:10;8.40;74.30
75621;DHT22;64574;48.506;-2.750;2022-11-18T08:23:36;8.50;74.10
75621;DHT22;64574;48.506;-2.750;2022-11-18T08:26:10;8.50;74.00
75621;DHT22;64574;48.506;-2.750;2022-11-18T08:28:37;8.60;73.50
75621;DHT22;64574;48.506;-2.750;2022-11-18T08:31:20;8.50;73.80
75621;DHT22;64574;48.506;-2.750;2022-11-18T08:33:47;8.60;74.10
75621;DHT22;64574;48.506;-2.750;2022-11-18T08:36:18;8.60;74.20
75621;DHT22;64574;48.506;-2.750;2022-11-18T08:38:45;8.60;74.00
75621;DHT22;64574;48.506;-2.750;2022-11-18T08:41:16;8.60;74.00
75621;DHT22;64574;48.506;-2.750;2022-11-18T08:43:43;8.60;74.20
75621;DHT22;64574;48.506;-2.750;2022-11-18T08:46:09;8.60;74.50
75621;DHT22;64574;48.506;-2.750;2022-11-18T08:48:34;8.60;74.60
75621;DHT22;64574;48.506;-2.750;2022-11-18T08:51:01;8.60;74.10
75621;DHT22;64574;48.506;-2.750;2022-11-18T08:53:26;8.60;73.80
75621;DHT22;64574;48.506;-2.750;2022-11-18T08:55:56;8.70;73.90
75621;DHT22;64574;48.506;-2.750;2022-11-18T08:58:22;8.80;73.70
75621;DHT22;64574;48.506;-2.750;2022-11-18T09:00:48;8.70;74.00
75621;DHT22;64574;48.506;-2.750;2022-11-18T09:03:14;8.80;73.70
75621;DHT22;64574;48.506;-2.750;2022-11-18T09:05:39;8.90;73.10
75621;DHT22;64574;48.506;-2.750;2022-11-18T09:08:05;8.90;73.00
75621;DHT22;64574;48.506;-2.750;2022-11-18T09:10:31;9.00;72.50
75621;DHT22;64574;48.506;-2.750;2022-11-18T09:12:59;9.00;72.10
75621;DHT22;64574;48.506;-2.750;2022-11-18T09:15:24;9.00;71.90
75621;DHT22;64574;48.506;-2.750;2022-11-18T09:17:51;9.00;72.00
75621;DHT22;64574;48.506;-2.750;2022-11-18T09:20:17;9.00;71.90
75621;DHT22;64574;48.506;-2.750;2022-11-18T09:22:42;9.00;72.30
75621;DHT22;64574;48.506;-2.750;2022-11-18T09:25:08;9.00;72.90
75621;DHT22;64574;48.506;-2.750;2022-11-18T09:27:34;8.90;73.10
75621;DHT22;64574;48.506;-2.750;2022-11-18T09:30:00;9.00;73.20
75621;DHT22;64574;48.506;-2.750;2022-11-18T09:32:25;9.00;73.30
75621;DHT22;64574;48.506;-2.750;2022-11-18T09:34:51;9.20;73.20
75621;DHT22;64574;48.506;-2.750;2022-11-18T09:37:16;9.20;72.90
75621;DHT22;64574;48.506;-2.750;2022-11-18T09:39:42;9.20;72.90
75621;DHT22;64574;48.506;-2.750;2022-11-18T09:45:24;9.20;72.60
75621;DHT22;64574;48.506;-2.750;2022-11-18T09:47:56;9.30;72.20
75621;DHT22;64574;48.506;-2.750;2022-11-18T09:50:23;9.40;72.20
75621;DHT22;64574;48.506;-2.750;2022-11-18T09:55:36;9.40;72.10
75621;DHT22;64574;48.506;-2.750;2022-11-18T09:58:03;9.40;72.40
75621;DHT22;64574;48.506;-2.750;2022-11-18T10:00:30;9.40;72.30
75621;DHT22;64574;48.506;-2.750;2022-11-18T10:03:01;9.50;72.30
75621;DHT22;64574;48.506;-2.750;2022-11-18T10:06:00;9.60;72.50
75621;DHT22;64574;48.506;-2.750;2022-11-18T10:13:59;9.60;71.30
75621;DHT22;64574;48.506;-2.750;2022-11-18T10:16:49;9.50;71.10
75621;DHT22;64574;48.506;-2.750;2022-11-18T10:19:39;9.60;71.40
75621;DHT22;64574;48.506;-2.750;2022-11-18T10:22:18;9.70;71.40
75621;DHT22;64574;48.506;-2.750;2022-11-18T10:24:51;9.70;71.50
75621;DHT22;64574;48.506;-2.750;2022-11-18T10:27:17;9.70;71.30
75621;DHT22;64574;48.506;-2.750;2022-11-18T10:29:45;9.70;71.10
75621;DHT22;64574;48.506;-2.750;2022-11-18T10:32:14;9.70;71.20
75621;DHT22;64574;48.506;-2.750;2022-11-18T10:34:52;9.70;71.40
75621;DHT22;64574;48.506;-2.750;2022-11-18T10:37:32;9.70;71.30
75621;DHT22;64574;48.506;-2.750;2022-11-18T10:40:00;9.70;71.50
75621;DHT22;64574;48.506;-2.750;2022-11-18T10:42:44;9.80;71.30
75621;DHT22;64574;48.506;-2.750;2022-11-18T10:45:23;9.80;70.70
75621;DHT22;64574;48.506;-2.750;2022-11-18T10:50:44;10.00;71.30
75621;DHT22;64574;48.506;-2.750;2022-11-18T10:53:29;10.10;71.00
75621;DHT22;64574;48.506;-2.750;2022-11-18T10:56:00;10.10;70.40
75621;DHT22;64574;48.506;-2.750;2022-11-18T10:58:28;10.10;70.90
75621;DHT22;64574;48.506;-2.750;2022-11-18T11:09:01;10.20;69.70
75621;DHT22;64574;48.506;-2.750;2022-11-18T11:11:33;10.20;69.20
75621;DHT22;64574;48.506;-2.750;2022-11-18T11:19:20;10.30;68.60
75621;DHT22;64574;48.506;-2.750;2022-11-18T11:21:47;10.40;68.90
75621;DHT22;64574;48.506;-2.750;2022-11-18T11:24:12;10.50;69.20
75621;DHT22;64574;48.506;-2.750;2022-11-18T11:29:33;10.40;68.90
75621;DHT22;64574;48.506;-2.750;2022-11-18T11:37:59;10.40;69.10
75621;DHT22;64574;48.506;-2.750;2022-11-18T11:46:47;10.10;68.90
75621;DHT22;64574;48.506;-2.750;2022-11-18T11:51:49;10.00;69.00
75621;DHT22;64574;48.506;-2.750;2022-11-18T11:54:58;10.00;68.50
75621;DHT22;64574;48.506;-2.750;2022-11-18T11:57:47;10.00;68.10
75621;DHT22;64574;48.506;-2.750;2022-11-18T12:00:13;10.00;68.90
75621;DHT22;64574;48.506;-2.750;2022-11-18T12:08:07;10.00;69.00
75621;DHT22;64574;48.506;-2.750;2022-11-18T12:15:39;9.80;69.60
75621;DHT22;64574;48.506;-2.750;2022-11-18T12:20:50;10.00;70.10
75621;DHT22;64574;48.506;-2.750;2022-11-18T12:25:55;10.00;70.00
75621;DHT22;64574;48.506;-2.750;2022-11-18T12:28:29;10.10;70.20
75621;DHT22;64574;48.506;-2.750;2022-11-18T12:34:36;10.00;70.30
75621;DHT22;64574;48.506;-2.750;2022-11-18T12:36:39;10.10;69.70
75621;DHT22;64574;48.506;-2.750;2022-11-18T12:41:56;10.00;70.20
75621;DHT22;64574;48.506;-2.750;2022-11-18T12:44:42;10.00;70.50
75621;DHT22;64574;48.506;-2.750;2022-11-18T12:50:11;10.00;69.60
75621;DHT22;64574;48.506;-2.750;2022-11-18T12:55:15;10.30;68.60
75621;DHT22;64574;48.506;-2.750;2022-11-18T12:57:42;10.40;67.70
75621;DHT22;64574;48.506;-2.750;2022-11-18T13:00:34;10.50;67.00
75621;DHT22;64574;48.506;-2.750;2022-11-18T13:03:24;10.60;66.90
75621;DHT22;64574;48.506;-2.750;2022-11-18T13:05:57;10.60;66.80
75621;DHT22;64574;48.506;-2.750;2022-11-18T13:08:25;10.50;66.60
75621;DHT22;64574;48.506;-2.750;2022-11-18T13:10:58;10.40;65.50
75621;DHT22;64574;48.506;-2.750;2022-11-18T13:13:45;10.30;64.70
75621;DHT22;64574;48.506;-2.750;2022-11-18T13:16:22;10.20;65.00
75621;DHT22;64574;48.506;-2.750;2022-11-18T13:19:07;10.20;64.70
75621;DHT22;64574;48.506;-2.750;2022-11-18T13:21:33;10.30;64.00
75621;DHT22;64574;48.506;-2.750;2022-11-18T13:24:22;10.40;63.50
75621;DHT22;64574;48.506;-2.750;2022-11-18T13:26:53;10.40;62.50
75621;DHT22;64574;48.506;-2.750;2022-11-18T13:34:49;10.50;61.30
75621;DHT22;64574;48.506;-2.750;2022-11-18T13:37:27;10.50;60.70
75621;DHT22;64574;48.506;-2.750;2022-11-18T13:39:53;10.70;60.80
75621;DHT22;64574;48.506;-2.750;2022-11-18T13:42:23;10.80;60.30
75621;DHT22;64574;48.506;-2.750;2022-11-18T13:44:56;10.80;60.30
75621;DHT22;64574;48.506;-2.750;2022-11-18T13:47:51;10.90;60.40
75621;DHT22;64574;48.506;-2.750;2022-11-18T13:50:31;10.90;60.60
75621;DHT22;64574;48.506;-2.750;2022-11-18T13:53:03;10.90;61.10
75621;DHT22;64574;48.506;-2.750;2022-11-18T13:55:40;11.00;61.30
75621;DHT22;64574;48.506;-2.750;2022-11-18T14:00:44;11.10;61.00
75621;DHT22;64574;48.506;-2.750;2022-11-18T14:03:32;11.10;60.90
75621;DHT22;64574;48.506;-2.750;2022-11-18T14:06:00;11.10;61.20
75621;DHT22;64574;48.506;-2.750;2022-11-18T14:08:30;11.10;61.00
75621;DHT22;64574;48.506;-2.750;2022-11-18T14:10:57;11.20;61.50
75621;DHT22;64574;48.506;-2.750;2022-11-18T14:16:01;11.00;62.80
75621;DHT22;64574;48.506;-2.750;2022-11-18T14:18:36;10.90;63.50
75621;DHT22;64574;48.506;-2.750;2022-11-18T14:21:04;10.90;63.90
75621;DHT22;64574;48.506;-2.750;2022-11-18T14:23:34;10.70;64.30
75621;DHT22;64574;48.506;-2.750;2022-11-18T14:26:03;10.50;65.00
75621;DHT22;64574;48.506;-2.750;2022-11-18T14:28:31;10.50;65.50
75621;DHT22;64574;48.506;-2.750;2022-11-18T14:34:17;10.50;65.70
75621;DHT22;64574;48.506;-2.750;2022-11-18T14:36:46;10.40;66.10
75621;DHT22;64574;48.506;-2.750;2022-11-18T14:39:32;10.40;66.50
75621;DHT22;64574;48.506;-2.750;2022-11-18T14:41:58;10.40;66.40
75621;DHT22;64574;48.506;-2.750;2022-11-18T14:44:26;10.30;67.00
75621;DHT22;64574;48.506;-2.750;2022-11-18T14:46:56;10.30;65.80
75621;DHT22;64574;48.506;-2.750;2022-11-18T14:49:23;10.30;65.60
75621;DHT22;64574;48.506;-2.750;2022-11-18T14:51:50;10.10;64.50
75621;DHT22;64574;48.506;-2.750;2022-11-18T14:54:17;10.10;65.30
75621;DHT22;64574;48.506;-2.750;2022-11-18T14:56:45;10.10;64.90
75621;DHT22;64574;48.506;-2.750;2022-11-18T14:59:12;10.10;64.40
75621;DHT22;64574;48.506;-2.750;2022-11-18T15:01:39;10.00;65.80
75621;DHT22;64574;48.506;-2.750;2022-11-18T15:04:05;10.00;67.00
75621;DHT22;64574;48.506;-2.750;2022-11-18T15:06:31;9.90;67.30
75621;DHT22;64574;48.506;-2.750;2022-11-18T15:08:56;9.90;67.60
75621;DHT22;64574;48.506;-2.750;2022-11-18T15:11:22;9.90;67.60
75621;DHT22;64574;48.506;-2.750;2022-11-18T15:13:48;9.80;68.00
75621;DHT22;64574;48.506;-2.750;2022-11-18T15:16:20;9.90;68.20
75621;DHT22;64574;48.506;-2.750;2022-11-18T15:18:48;9.70;68.50
75621;DHT22;64574;48.506;-2.750;2022-11-18T15:21:14;9.80;68.40
75621;DHT22;64574;48.506;-2.750;2022-11-18T15:23:40;9.80;68.40
75621;DHT22;64574;48.506;-2.750;2022-11-18T15:26:31;9.70;68.70
75621;DHT22;64574;48.506;-2.750;2022-11-18T15:28:58;9.80;68.80
75621;DHT22;64574;48.506;-2.750;2022-11-18T15:31:24;9.80;69.40
75621;DHT22;64574;48.506;-2.750;2022-11-18T15:33:50;9.70;69.90
75621;DHT22;64574;48.506;-2.750;2022-11-18T15:36:24;9.80;70.20
75621;DHT22;64574;48.506;-2.750;2022-11-18T15:38:52;9.80;70.50
75621;DHT22;64574;48.506;-2.750;2022-11-18T15:41:21;10.00;70.40
75621;DHT22;64574;48.506;-2.750;2022-11-18T15:43:48;9.90;70.00
75621;DHT22;64574;48.506;-2.750;2022-11-18T15:46:15;9.90;70.00
75621;DHT22;64574;48.506;-2.750;2022-11-18T15:48:41;9.90;70.30
75621;DHT22;64574;48.506;-2.750;2022-11-18T15:51:07;9.80;70.70
75621;DHT22;64574;48.506;-2.750;2022-11-18T15:53:33;9.90;70.60
75621;DHT22;64574;48.506;-2.750;2022-11-18T15:58:50;9.90;70.70
75621;DHT22;64574;48.506;-2.750;2022-11-18T16:01:15;9.90;70.60
75621;DHT22;64574;48.506;-2.750;2022-11-18T16:03:41;9.80;70.70
75621;DHT22;64574;48.506;-2.750;2022-11-18T16:06:07;9.80;71.00
75621;DHT22;64574;48.506;-2.750;2022-11-18T16:08:32;9.80;71.40
75621;DHT22;64574;48.506;-2.750;2022-11-18T16:10:58;9.80;71.50
75621;DHT22;64574;48.506;-2.750;2022-11-18T16:13:42;9.80;71.60
75621;DHT22;64574;48.506;-2.750;2022-11-18T16:16:20;9.80;71.50
75621;DHT22;64574;48.506;-2.750;2022-11-18T16:18:46;9.80;71.80
75621;DHT22;64574;48.506;-2.750;2022-11-18T16:21:12;9.70;71.60
75621;DHT22;64574;48.506;-2.750;2022-11-18T16:23:38;9.70;71.80
75621;DHT22;64574;48.506;-2.750;2022-11-18T16:26:04;9.70;71.60
75621;DHT22;64574;48.506;-2.750;2022-11-18T16:28:29;9.70;71.50
75621;DHT22;64574;48.506;-2.750;2022-11-18T16:30:55;9.50;71.80
75621;DHT22;64574;48.506;-2.750;2022-11-18T16:33:39;9.50;71.80
75621;DHT22;64574;48.506;-2.750;2022-11-18T16:36:05;9.50;72.00
75621;DHT22;64574;48.506;-2.750;2022-11-18T16:38:31;9.60;71.90
75621;DHT22;64574;48.506;-2.750;2022-11-18T16:40:57;9.50;71.80
75621;DHT22;64574;48.506;-2.750;2022-11-18T16:43:24;9.50;71.80
75621;DHT22;64574;48.506;-2.750;2022-11-18T16:45:54;9.40;72.00
75621;DHT22;64574;48.506;-2.750;2022-11-18T16:48:20;9.40;71.80
75621;DHT22;64574;48.506;-2.750;2022-11-18T16:51:10;9.40;72.10
75621;DHT22;64574;48.506;-2.750;2022-11-18T16:53:42;9.40;72.30
75621;DHT22;64574;48.506;-2.750;2022-11-18T16:56:08;9.40;72.20
75621;DHT22;64574;48.506;-2.750;2022-11-18T16:58:33;9.40;72.20
75621;DHT22;64574;48.506;-2.750;2022-11-18T17:00:59;9.40;72.20
75621;DHT22;64574;48.506;-2.750;2022-11-18T17:03:33;9.40;72.40
75621;DHT22;64574;48.506;-2.750;2022-11-18T17:05:59;9.30;72.50
75621;DHT22;64574;48.506;-2.750;2022-11-18T17:08:25;9.20;72.90
75621;DHT22;64574;48.506;-2.750;2022-11-18T17:10:51;9.20;73.30
75621;DHT22;64574;48.506;-2.750;2022-11-18T17:13:16;9.20;73.20
75621;DHT22;64574;48.506;-2.750;2022-11-18T17:15:42;9.20;73.50
75621;DHT22;64574;48.506;-2.750;2022-11-18T17:18:07;9.20;73.60
75621;DHT22;64574;48.506;-2.750;2022-11-18T17:20:36;9.10;73.60
75621;DHT22;64574;48.506;-2.750;2022-11-18T17:23:01;9.00;73.80
75621;DHT22;64574;48.506;-2.750;2022-11-18T17:25:27;9.00;73.50
75621;DHT22;64574;48.506;-2.750;2022-11-18T17:27:53;9.00;73.50
75621;DHT22;64574;48.506;-2.750;2022-11-18T17:30:18;9.00;73.40
75621;DHT22;64574;48.506;-2.750;2022-11-18T17:32:44;9.10;73.10
75621;DHT22;64574;48.506;-2.750;2022-11-18T17:35:10;9.10;73.10